Terminal Aerodrome Forecast
Issued by NWS Twin Cities, MN

Home | Current Version | Previous Version | Text Only | Print | Product List | Glossary On
Versions: 1 2 3 4 5 6 7 8 9 10 11 12 13 14 15
000
FTUS43 KMPX 290520
TAFSTC
TAF
KSTC 290520Z 2906/3006 17014G21KT P6SM SCT120 BKN250
     FM290700 16018G24KT P6SM SCT050 BKN110
     FM290900 18016G24KT P6SM -RA SCT040 OVC090
     FM291100 19018G24KT P6SM VCSH BKN015 OVC035
     FM291500 29022G30KT P6SM BKN020 OVC040 PROB30 2915/2917 5SM
      -SHRA
     FM291700 31028G37KT P6SM SCT020 BKN035
     FM300100 30012KT P6SM SCT040=

USA.gov is the U.S. government's official web portal to all federal, state and local government web resources and services.